Time;durP1;ratioP1;P1;durP2;ratioP2;P2;SDS_P1;SDS_P2;PMS_P1;PMS_P2;Temp;Humidity;BMP_temperature;BMP_pressure;BME280_temperature;BME280_humidity;BME280_pressure;Samples;Min_cycle;Max_cycle;Signal;HPM_P1;HPM_P2
2022/02/16 00:02:08;;;;;;;4.25;2.47;;;;;;;2.96;76.40;96189.47;5028517;28;20057;-77
2022/02/16 00:04:35;;;;;;;4.55;2.33;;;;;;;2.96;76.25;96187.56;5029439;28;20053;-76
2022/02/16 00:07:03;;;;;;;4.72;2.60;;;;;;;2.95;76.42;96187.84;5028649;28;20167;-77
2022/02/16 00:09:30;;;;;;;3.28;2.38;;;;;;;2.96;76.67;96187.56;5029338;28;20053;-76
2022/02/16 00:11:56;;;;;;;4.78;2.80;;;;;;;2.95;76.43;96182.47;5028469;28;20056;-76
2022/02/16 00:14:23;;;;;;;5.35;2.83;;;;;;;2.94;76.65;96183.56;5029116;28;20495;-75
2022/02/16 00:16:49;;;;;;;3.65;2.35;;;;;;;2.93;76.79;96181.97;5027792;28;20049;-76
2022/02/16 00:19:16;;;;;;;6.13;2.40;;;;;;;2.86;77.01;96180.34;5028884;28;20850;-76
2022/02/16 00:21:43;;;;;;;4.55;2.63;;;;;;;2.83;77.17;96183.59;5028249;28;20726;-76
2022/02/16 00:24:10;;;;;;;5.55;2.88;;;;;;;2.83;77.51;96182.78;5028222;28;20049;-76
2022/02/16 00:26:38;;;;;;;3.97;2.40;;;;;;;2.82;77.44;96179.28;5028686;28;20504;-76
2022/02/16 00:29:05;;;;;;;7.05;2.90;;;;;;;2.85;77.53;96181.41;5028000;28;20053;-76
2022/02/16 00:31:32;;;;;;;5.70;2.97;;;;;;;2.82;77.46;96176.59;5028853;28;20519;-76
2022/02/16 00:33:58;;;;;;;5.88;2.63;;;;;;;2.80;77.58;96173.38;5028148;28;20136;-76
2022/02/16 00:36:24;;;;;;;5.10;2.88;;;;;;;2.81;77.72;96174.16;5028778;28;20045;-76
2022/02/16 00:38:51;;;;;;;5.20;2.70;;;;;;;2.77;77.77;96157.78;5027938;28;20073;-76
2022/02/16 00:41:19;;;;;;;5.05;3.10;;;;;;;2.79;77.56;96158.31;5028275;28;20271;-76
2022/02/16 00:43:45;;;;;;;4.28;2.75;;;;;;;2.77;77.76;96157.00;5028292;28;20060;-76
2022/02/16 00:46:12;;;;;;;5.45;2.85;;;;;;;2.79;77.94;96152.13;5027159;28;20049;-76
2022/02/16 00:48:38;;;;;;;4.63;3.08;;;;;;;2.82;77.56;96155.09;5028260;28;20056;-76
2022/02/16 00:51:05;;;;;;;4.43;2.38;;;;;;;2.82;77.52;96147.03;5028509;28;20061;-76
2022/02/16 00:53:31;;;;;;;4.78;2.63;;;;;;;2.82;77.52;96149.72;5028923;28;20057;-76
2022/02/16 00:55:58;;;;;;;3.67;2.47;;;;;;;2.80;77.11;96146.47;5027662;28;20064;-76
2022/02/16 00:58:26;;;;;;;5.45;2.40;;;;;;;2.82;76.96;96147.03;5028045;28;20512;-76
2022/02/16 01:00:52;;;;;;;4.43;2.22;;;;;;;2.81;76.93;96139.22;5026427;28;20575;-76
2022/02/16 01:03:19;;;;;;;5.13;2.65;;;;;;;2.79;76.80;96134.13;5027144;28;20061;-75
2022/02/16 01:05:46;;;;;;;5.38;2.45;;;;;;;2.82;76.63;96133.59;5007792;28;20050;-76
2022/02/16 01:08:13;;;;;;;3.92;2.20;;;;;;;2.84;76.36;96131.41;5007789;28;20056;-77
2022/02/16 01:10:41;;;;;;;3.38;2.22;;;;;;;2.84;75.49;96130.59;5008069;28;20064;-77
2022/02/16 01:13:09;;;;;;;4.90;2.10;;;;;;;2.84;75.09;96123.34;5007619;28;20142;-75
2022/02/16 01:15:36;;;;;;;3.30;2.35;;;;;;;2.82;75.39;96120.13;5014633;28;20053;-76
2022/02/16 01:18:03;;;;;;;4.88;2.08;;;;;;;2.81;75.66;96126.56;5026897;28;20159;-76
2022/02/16 01:20:30;;;;;;;3.38;2.10;;;;;;;2.77;75.57;96130.09;5028041;28;20060;-76
2022/02/16 01:22:56;;;;;;;3.92;1.88;;;;;;;2.78;75.13;96113.69;5027273;28;20060;-76
2022/02/16 01:25:23;;;;;;;4.80;1.83;;;;;;;2.76;74.82;96107.75;5028035;28;20052;-76
2022/02/16 01:27:50;;;;;;;3.60;2.13;;;;;;;2.77;74.54;96104.00;5027156;28;20077;-76
2022/02/16 01:30:16;;;;;;;3.25;1.90;;;;;;;2.77;73.79;96108.59;5027704;28;20045;-76
2022/02/16 01:32:44;;;;;;;2.83;1.70;;;;;;;2.81;73.72;96109.63;5027008;28;20511;-76
2022/02/16 01:35:11;;;;;;;3.70;1.55;;;;;;;2.76;73.42;96107.75;5026932;28;20045;-76
2022/02/16 01:37:37;;;;;;;2.55;1.70;;;;;;;2.79;73.23;96101.84;5027329;28;20057;-76
2022/02/16 01:40:05;;;;;;;2.05;1.40;;;;;;;2.77;72.91;96104.00;5026958;28;20057;-75
2022/02/16 01:42:31;;;;;;;3.42;1.70;;;;;;;2.74;72.86;96101.06;5027479;28;20061;-75
2022/02/16 01:44:57;;;;;;;1.88;1.30;;;;;;;2.74;72.35;96099.16;5026282;28;20508;-76
2022/02/16 01:47:24;;;;;;;3.65;1.40;;;;;;;2.74;71.86;96098.38;5027193;28;20695;-76
2022/02/16 01:49:52;;;;;;;2.47;1.30;;;;;;;2.77;71.74;96098.63;5026489;28;20052;-76
2022/02/16 01:52:18;;;;;;;1.58;1.10;;;;;;;2.77;71.66;96085.19;5027193;28;20061;-75
2022/02/16 01:54:45;;;;;;;3.05;1.30;;;;;;;2.80;71.03;96079.25;5026557;28;20054;-76
2022/02/16 01:57:14;;;;;;;1.95;1.00;;;;;;;2.82;70.39;96085.19;5026870;28;20101;-76
2022/02/16 01:59:40;;;;;;;2.03;1.17;;;;;;;2.86;69.54;96075.47;5026560;28;20141;-76
2022/02/16 02:02:07;;;;;;;2.70;1.17;;;;;;;2.87;69.00;96069.03;5026339;28;20053;-76
2022/02/16 02:04:34;;;;;;;1.30;0.95;;;;;;;2.91;68.96;96065.75;5027318;28;20079;-76
2022/02/16 02:07:02;;;;;;;2.70;0.98;;;;;;;2.91;68.50;96060.38;5026511;28;20079;-76
2022/02/16 02:09:29;;;;;;;1.63;0.90;;;;;;;2.91;68.53;96068.44;5026939;28;20041;-76
2022/02/16 02:11:55;;;;;;;1.27;0.70;;;;;;;2.94;68.34;96059.84;5025924;28;20045;-76
2022/02/16 02:14:22;;;;;;;2.38;1.10;;;;;;;2.97;68.21;96053.91;5027067;28;22186;-78
2022/02/16 02:16:48;;;;;;;2.67;1.13;;;;;;;2.99;68.96;96047.16;5027043;28;20053;-76
2022/02/16 02:19:15;;;;;;;1.77;1.02;;;;;;;3.01;68.82;96049.56;5026219;28;20042;-75
2022/02/16 02:21:46;;;;;;;1.08;0.80;;;;;;;3.01;69.16;96044.19;5026671;28;20096;-76
2022/02/16 02:24:13;;;;;;;2.70;1.08;;;;;;;2.97;69.29;96049.31;5026491;28;20049;-76
2022/02/16 02:26:39;;;;;;;2.53;1.15;;;;;;;2.94;70.19;96038.31;5026756;28;20045;-76
2022/02/16 02:29:06;;;;;;;1.63;1.30;;;;;;;2.90;70.03;96040.75;5026018;28;20396;-75
2022/02/16 02:31:35;;;;;;;2.20;1.48;;;;;;;2.87;70.27;96031.38;5027081;28;20412;-77
2022/02/16 02:34:02;;;;;;;2.88;1.52;;;;;;;2.82;71.05;96036.78;5025971;28;20045;-76
2022/02/16 02:36:28;;;;;;;4.05;1.90;;;;;;;2.76;71.65;96032.47;5026743;28;20125;-76
2022/02/16 02:38:57;;;;;;;3.00;1.88;;;;;;;2.69;71.70;96042.72;5025930;28;20111;-76
2022/02/16 02:41:24;;;;;;;3.80;1.80;;;;;;;2.63;72.01;96035.78;5026312;28;20100;-76
2022/02/16 02:43:51;;;;;;;3.70;2.15;;;;;;;2.58;72.64;96030.41;5026036;28;20192;-76
2022/02/16 02:46:19;;;;;;;3.42;2.22;;;;;;;2.52;72.97;96042.25;5025690;28;20060;-76
2022/02/16 02:48:46;;;;;;;2.65;1.92;;;;;;;2.48;73.23;96031.25;5026579;28;20145;-76
2022/02/16 02:51:14;;;;;;;4.90;2.20;;;;;;;2.45;73.55;96030.97;5025520;28;20049;-76
2022/02/16 02:53:41;;;;;;;2.95;1.92;;;;;;;2.38;73.78;96030.47;5026683;28;20424;-75
2022/02/16 02:56:09;;;;;;;3.13;1.88;;;;;;;2.31;74.22;96031.56;5025179;28;20056;-76
2022/02/16 02:58:35;;;;;;;4.13;2.00;;;;;;;2.27;74.34;96025.13;5026714;28;20049;-76
2022/02/16 03:01:03;;;;;;;3.22;2.10;;;;;;;2.24;74.63;96020.28;5025636;28;20504;-75
2022/02/16 03:03:30;;;;;;;2.85;1.88;;;;;;;2.21;74.66;96020.06;5026606;28;20818;-76
2022/02/16 03:05:57;;;;;;;5.15;2.40;;;;;;;2.17;75.19;96014.41;5025716;28;20510;-78
2022/02/16 03:08:24;;;;;;;3.38;2.00;;;;;;;2.14;74.91;96009.59;5025912;28;20125;-76
2022/02/16 03:10:50;;;;;;;3.63;2.17;;;;;;;2.14;75.27;96016.84;5026245;28;20057;-76
2022/02/16 03:13:21;;;;;;;3.45;1.80;;;;;;;2.13;75.38;96007.16;5025671;28;20046;-76
2022/02/16 03:15:48;;;;;;;4.55;1.70;;;;;;;2.14;74.97;96003.41;5025962;28;20056;-76
2022/02/16 03:18:15;;;;;;;3.08;1.75;;;;;;;2.14;75.10;96001.53;5025165;28;20054;-75
2022/02/16 03:20:41;;;;;;;3.22;1.50;;;;;;;2.12;75.18;95995.63;5026658;28;20064;-75
2022/02/16 03:23:08;;;;;;;2.97;1.90;;;;;;;2.15;75.02;95995.09;5025070;28;20068;-75
2022/02/16 03:25:35;;;;;;;2.50;1.60;;;;;;;2.17;74.87;95987.56;5030790;28;20057;-76
2022/02/16 03:28:01;;;;;;;2.58;1.63;;;;;;;2.19;75.04;95989.97;5029532;28;20509;-76
2022/02/16 03:30:29;;;;;;;2.60;1.75;;;;;;;2.19;75.10;95996.13;5030195;28;20069;-77
2022/02/16 03:32:56;;;;;;;2.75;1.50;;;;;;;2.21;75.02;95994.00;5029687;28;20056;-78
2022/02/16 03:35:22;;;;;;;2.58;1.50;;;;;;;2.24;74.64;95996.13;5029386;28;20060;-76
2022/02/16 03:37:49;;;;;;;2.35;1.60;;;;;;;2.20;74.88;95995.06;5030129;28;20053;-76
2022/02/16 03:40:15;;;;;;;4.03;1.80;;;;;;;2.20;75.08;95996.97;5029189;28;20053;-77
2022/02/16 03:42:42;;;;;;;4.22;1.80;;;;;;;2.21;75.42;95983.25;5029662;28;20103;-76
2022/02/16 03:45:09;;;;;;;4.90;1.80;;;;;;;2.19;75.35;95974.63;5026790;28;20099;-75
2022/02/16 03:47:37;;;;;;;4.28;1.55;;;;;;;2.21;75.54;95977.88;5030021;28;20075;-76
2022/02/16 03:50:05;;;;;;;1.77;1.27;;;;;;;2.08;75.81;95989.19;5028534;28;20548;-75
2022/02/16 03:52:31;;;;;;;2.45;1.60;;;;;;;2.03;76.19;95973.88;5029838;28;20053;-76
2022/02/16 03:54:57;;;;;;;2.05;1.38;;;;;;;2.03;76.32;95967.72;5029564;28;20064;-75
2022/02/16 03:57:24;;;;;;;2.50;1.70;;;;;;;2.07;76.74;95960.72;5029288;28;20049;-76
2022/02/16 03:59:50;;;;;;;3.75;1.67;;;;;;;2.10;76.80;95968.25;5029251;28;20137;-76
2022/02/16 04:02:17;;;;;;;3.65;1.60;;;;;;;2.16;76.38;95959.09;5028363;28;20061;-75
2022/02/16 04:04:45;;;;;;;2.47;1.55;;;;;;;2.19;76.24;95963.91;5029478;28;20057;-75
2022/02/16 04:07:11;;;;;;;2.63;1.50;;;;;;;2.18;76.17;95966.88;5028945;28;20038;-75
2022/02/16 04:09:38;;;;;;;1.85;1.33;;;;;;;2.16;76.20;95959.09;5029842;28;20064;-76
2022/02/16 04:12:05;;;;;;;2.67;1.50;;;;;;;2.18;76.23;95964.97;5028324;28;20110;-75
2022/02/16 04:14:32;;;;;;;2.58;1.38;;;;;;;2.24;76.18;95961.19;5029021;28;20154;-76
2022/02/16 04:16:58;;;;;;;3.97;1.50;;;;;;;2.27;76.17;95944.53;5028669;28;20746;-77
2022/02/16 04:19:25;;;;;;;3.30;1.30;;;;;;;2.29;75.91;95950.44;5028545;28;20045;-76
2022/02/16 04:21:53;;;;;;;1.88;1.13;;;;;;;2.29;75.69;95955.81;5028702;28;20060;-76
2022/02/16 04:24:19;;;;;;;2.25;1.10;;;;;;;2.27;75.60;95944.53;5028431;28;20061;-76
2022/02/16 04:26:46;;;;;;;3.42;1.40;;;;;;;2.30;75.84;95944.00;5028940;28;20049;-76
2022/02/16 04:29:13;;;;;;;2.75;1.15;;;;;;;2.29;76.06;95930.81;5028046;28;20060;-76
2022/02/16 04:31:40;;;;;;;1.60;1.00;;;;;;;2.28;75.93;95932.72;5029541;28;20057;-76
2022/02/16 04:34:06;;;;;;;2.95;1.10;;;;;;;2.32;75.83;95920.34;5027731;28;20057;-76
2022/02/16 04:36:33;;;;;;;2.90;1.17;;;;;;;2.33;75.81;95932.69;5029282;28;20054;-76
2022/02/16 04:39:02;;;;;;;2.67;1.02;;;;;;;2.35;75.68;95919.00;5028694;28;20060;-76
2022/02/16 04:41:28;;;;;;;2.55;1.00;;;;;;;2.34;75.77;95920.84;5028717;28;20046;-76
2022/02/16 04:43:55;;;;;;;3.10;1.20;;;;;;;2.37;75.89;95910.66;5027472;28;20061;-77
2022/02/16 04:46:21;;;;;;;1.85;1.10;;;;;;;2.38;75.81;95917.63;5027709;28;20057;-75
2022/02/16 04:48:48;;;;;;;1.33;1.00;;;;;;;2.36;75.63;95909.84;5028411;28;20393;-76
2022/02/16 04:51:15;;;;;;;2.15;1.23;;;;;;;2.40;75.88;95904.72;5027880;28;20045;-76
2022/02/16 04:53:41;;;;;;;1.38;1.00;;;;;;;2.40;75.95;95902.81;5029087;28;20056;-76
2022/02/16 04:56:09;;;;;;;5.93;1.80;;;;;;;2.38;75.57;95901.50;5027370;28;20053;-76
2022/02/16 04:58:36;;;;;;;1.92;1.20;;;;;;;2.34;75.42;95904.72;5029060;28;20053;-76
2022/02/16 05:01:02;;;;;;;2.35;1.15;;;;;;;2.34;75.70;95896.66;5027257;28;20053;-74
2022/02/16 05:03:29;;;;;;;2.13;1.30;;;;;;;2.34;75.42;95896.66;5026467;28;20049;-76
2022/02/16 05:05:55;;;;;;;1.83;1.00;;;;;;;2.38;75.20;95901.50;5007911;28;20070;-76
2022/02/16 05:08:22;;;;;;;1.35;0.93;;;;;;;2.38;75.32;95886.19;5008270;28;20076;-76
2022/02/16 05:10:48;;;;;;;1.65;1.13;;;;;;;2.39;75.19;95884.28;5008550;28;20054;-75
2022/02/16 05:13:16;;;;;;;1.50;1.00;;;;;;;2.44;75.46;95876.22;5007521;28;20045;-76
2022/02/16 05:15:43;;;;;;;2.55;1.10;;;;;;;2.46;74.79;95882.13;5008486;28;20133;-77
2022/02/16 05:18:09;;;;;;;1.27;1.10;;;;;;;2.48;74.45;95874.56;5007303;28;20054;-76
2022/02/16 05:20:36;;;;;;;1.75;1.00;;;;;;;2.51;74.59;95868.66;5008522;28;20559;-75
2022/02/16 05:23:02;;;;;;;1.85;1.20;;;;;;;2.56;74.08;95860.56;5007325;28;20564;-73
2022/02/16 05:25:29;;;;;;;1.63;1.00;;;;;;;2.55;73.96;95854.34;5008835;28;20054;-76
2022/02/16 05:27:55;;;;;;;1.88;0.90;;;;;;;2.60;73.74;95850.84;5007434;28;20053;-76
2022/02/16 05:30:23;;;;;;;2.85;0.88;;;;;;;2.64;73.37;95856.47;5007789;28;20049;-76
2022/02/16 05:32:50;;;;;;;3.10;1.15;;;;;;;2.66;72.84;95854.28;5008166;28;20064;-76
2022/02/16 05:35:16;;;;;;;2.22;1.08;;;;;;;2.71;73.06;95857.75;5007558;28;20077;-76
2022/02/16 05:37:43;;;;;;;1.33;0.95;;;;;;;2.75;73.13;95850.72;5008147;28;20072;-76
2022/02/16 05:40:11;;;;;;;1.60;1.05;;;;;;;2.78;72.61;95846.69;5006854;28;20064;-76
2022/02/16 05:42:38;;;;;;;1.90;1.10;;;;;;;2.80;72.41;95842.63;5008287;28;20058;-76
2022/02/16 05:45:05;;;;;;;1.77;0.93;;;;;;;2.79;72.39;95843.72;5023938;28;20052;-76
2022/02/16 05:47:33;;;;;;;3.35;2.05;;;;;;;2.76;72.37;95846.94;5027171;28;20534;-76
2022/02/16 05:49:59;;;;;;;3.35;1.90;;;;;;;2.76;72.72;95841.56;5027048;28;20053;-76
2022/02/16 05:52:26;;;;;;;2.72;1.25;;;;;;;2.78;72.44;95850.19;5027293;28;20056;-76
2022/02/16 05:54:52;;;;;;;1.75;1.00;;;;;;;2.80;72.16;95852.56;5027061;28;20056;-76
2022/02/16 05:57:19;;;;;;;1.05;0.95;;;;;;;2.78;72.19;95842.13;5026590;28;20084;-75
2022/02/16 05:59:45;;;;;;;1.05;0.82;;;;;;;2.78;72.05;95836.72;5027336;28;20049;-77
2022/02/16 06:02:12;;;;;;;1.67;0.77;;;;;;;2.75;72.53;95847.25;5026362;28;20112;-76
2022/02/16 06:04:41;;;;;;;2.42;0.90;;;;;;;2.76;72.01;95843.47;5027489;28;20452;-76
2022/02/16 06:07:07;;;;;;;1.83;0.90;;;;;;;2.70;71.88;95842.69;5026232;28;20617;-75
2022/02/16 06:09:34;;;;;;;3.15;0.85;;;;;;;2.66;72.47;95841.66;5027502;28;20516;-76
2022/02/16 06:12:00;;;;;;;3.38;0.80;;;;;;;2.63;72.50;95841.44;5026450;28;20089;-76
2022/02/16 06:14:27;;;;;;;1.90;1.00;;;;;;;2.63;72.72;95836.84;5013628;28;20057;-76
2022/02/16 06:16:53;;;;;;;1.48;1.02;;;;;;;2.61;72.37;95825.59;5006480;28;20054;-76
2022/02/16 06:19:19;;;;;;;1.80;1.08;;;;;;;2.65;72.57;95831.97;5006575;28;20501;-77
2022/02/16 06:21:47;;;;;;;2.42;0.80;;;;;;;2.68;72.64;95823.38;5006585;28;20061;-73
2022/02/16 06:24:14;;;;;;;2.05;1.10;;;;;;;2.71;72.38;95828.16;5006872;28;20663;-73
2022/02/16 06:26:40;;;;;;;1.05;0.80;;;;;;;2.76;72.25;95828.13;5006694;28;20094;-73
2022/02/16 06:29:08;;;;;;;1.73;0.90;;;;;;;2.81;71.85;95825.41;5005445;28;20689;-73
2022/02/16 06:31:34;;;;;;;3.50;0.90;;;;;;;2.85;71.60;95807.63;5007067;28;20080;-73
2022/02/16 06:34:01;;;;;;;1.20;0.80;;;;;;;2.93;71.77;95813.50;5006699;28;20065;-73
2022/02/16 06:36:27;;;;;;;1.38;0.90;;;;;;;2.98;70.57;95808.88;5007216;28;20386;-73
2022/02/16 06:38:55;;;;;;;3.95;0.82;;;;;;;3.01;70.31;95812.88;5006467;28;20049;-72
2022/02/16 06:41:22;;;;;;;5.43;1.00;;;;;;;3.05;70.31;95809.34;5006763;28;20061;-74
2022/02/16 06:43:48;;;;;;;1.30;0.80;;;;;;;3.06;69.58;95805.56;5013722;28;20196;-73
2022/02/16 06:46:15;;;;;;;0.70;0.68;;;;;;;3.10;69.61;95811.19;5025923;28;20523;-74
2022/02/16 06:48:42;;;;;;;1.83;1.05;;;;;;;3.12;69.44;95809.00;5025245;28;20052;-73
2022/02/16 06:51:08;;;;;;;2.60;0.90;;;;;;;3.14;69.57;95801.47;5026541;28;20115;-73
2022/02/16 06:53:35;;;;;;;5.85;0.90;;;;;;;3.17;69.06;95806.25;5027215;28;20057;-74
2022/02/16 06:56:03;;;;;;;1.08;0.70;;;;;;;3.17;68.83;95805.47;5026238;28;20057;-73
2022/02/16 06:58:29;;;;;;;1.67;0.70;;;;;;;3.20;68.99;95804.91;5026548;28;20119;-73
2022/02/16 07:00:56;;;;;;;3.13;0.88;;;;;;;3.23;68.90;95805.13;5026150;28;20118;-73
2022/02/16 07:03:22;;;;;;;3.42;1.02;;;;;;;3.24;69.06;95796.00;5026637;28;20061;-73
2022/02/16 07:05:49;;;;;;;3.38;0.80;;;;;;;3.26;68.33;95796.50;5026836;28;20050;-73
2022/02/16 07:08:15;;;;;;;1.52;0.80;;;;;;;3.25;68.84;95786.03;5025844;28;20515;-73
2022/02/16 07:10:42;;;;;;;2.35;0.90;;;;;;;3.25;68.45;95791.41;5026236;28;20057;-73
2022/02/16 07:13:09;;;;;;;2.60;1.00;;;;;;;3.26;68.41;95787.63;5024983;28;20057;-73
2022/02/16 07:15:36;;;;;;;1.33;0.80;;;;;;;3.28;68.47;95790.81;5026483;28;20061;-73
2022/02/16 07:18:03;;;;;;;1.40;0.80;;;;;;;3.28;68.74;95782.75;5025599;28;20053;-73
2022/02/16 07:20:29;;;;;;;1.77;0.85;;;;;;;3.29;68.66;95782.47;5026611;28;20049;-73
2022/02/16 07:22:56;;;;;;;2.05;1.00;;;;;;;3.29;68.58;95782.47;5025540;28;20111;-74
2022/02/16 07:25:24;;;;;;;3.35;0.90;;;;;;;3.32;68.26;95787.28;5025874;28;20049;-74
2022/02/16 07:27:51;;;;;;;1.15;0.90;;;;;;;3.31;68.16;95774.91;5025382;28;20731;-74
2022/02/16 07:30:18;;;;;;;2.85;0.82;;;;;;;3.38;68.13;95779.94;5025870;28;20535;-75
2022/02/16 07:32:45;;;;;;;1.17;0.77;;;;;;;3.42;68.63;95769.41;5026082;28;20064;-74
2022/02/16 07:35:13;;;;;;;1.30;0.70;;;;;;;3.44;68.10;95764.53;5025408;28;20062;-73
2022/02/16 07:37:39;;;;;;;1.92;0.80;;;;;;;3.50;68.13;95760.69;5025904;28;20056;-73
2022/02/16 07:40:07;;;;;;;1.50;0.95;;;;;;;3.58;67.50;95757.38;5025406;28;20502;-73
2022/02/16 07:42:34;;;;;;;2.33;0.98;;;;;;;3.63;67.15;95757.31;5026475;28;20049;-73
2022/02/16 07:45:02;;;;;;;1.13;0.95;;;;;;;3.70;67.28;95752.38;5024631;28;20053;-73
2022/02/16 07:47:31;;;;;;;2.80;0.90;;;;;;;3.76;67.17;95748.56;5026151;28;20046;-73
2022/02/16 07:49:58;;;;;;;3.45;1.00;;;;;;;3.82;66.77;95739.31;5025583;28;20132;-73
2022/02/16 07:52:24;;;;;;;2.97;1.30;;;;;;;3.83;66.05;95738.22;5026015;28;20053;-73
2022/02/16 07:54:51;;;;;;;2.92;1.00;;;;;;;3.90;66.55;95741.34;5025716;28;20048;-72
2022/02/16 07:57:17;;;;;;;2.05;1.20;;;;;;;3.98;66.24;95739.09;5025674;28;20058;-73
2022/02/16 07:59:43;;;;;;;2.33;1.20;;;;;;;4.04;65.63;95737.94;5025563;28;20045;-73
2022/02/16 08:02:10;;;;;;;5.18;1.33;;;;;;;4.07;65.66;95732.78;5025411;28;20054;-73
2022/02/16 08:04:38;;;;;;;2.53;1.08;;;;;;;4.12;65.46;95730.00;5026189;28;20037;-73
2022/02/16 08:07:05;;;;;;;2.63;1.10;;;;;;;4.18;65.13;95728.03;5024923;28;20556;-74
2022/02/16 08:09:33;;;;;;;2.13;1.08;;;;;;;4.25;65.09;95722.28;5026882;28;20057;-73
2022/02/16 08:11:59;;;;;;;1.63;0.90;;;;;;;4.33;64.29;95725.13;5029193;28;20099;-75
2022/02/16 08:14:26;;;;;;;4.43;1.20;;;;;;;4.41;64.33;95724.44;5028595;28;20045;-73
2022/02/16 08:16:55;;;;;;;2.17;1.20;;;;;;;4.55;64.27;95723.69;5029230;28;20045;-74
2022/02/16 08:19:23;;;;;;;2.40;0.98;;;;;;;4.56;63.58;95717.19;5028906;28;22302;-74
2022/02/16 08:21:53;;;;;;;2.22;1.05;;;;;;;4.67;63.84;95713.22;5029256;28;20054;-73
2022/02/16 08:24:20;;;;;;;2.75;0.98;;;;;;;4.81;62.84;95714.06;5029048;28;20044;-73
2022/02/16 08:26:46;;;;;;;4.18;0.95;;;;;;;5.09;61.73;95703.31;5029329;28;20499;-73
2022/02/16 08:29:15;;;;;;;2.55;1.08;;;;;;;5.22;61.56;95710.63;5028410;28;20531;-73
2022/02/16 08:31:41;;;;;;;2.40;1.00;;;;;;;5.35;61.29;95709.81;5029720;28;20045;-73
2022/02/16 08:34:08;;;;;;;1.52;0.95;;;;;;;5.42;60.53;95704.00;5028290;28;20053;-73
2022/02/16 08:36:34;;;;;;;1.35;0.90;;;;;;;5.55;60.10;95705.91;5029904;28;20412;-73
2022/02/16 08:39:02;;;;;;;2.30;1.33;;;;;;;5.74;60.09;95692.28;5028423;28;20052;-73
2022/02/16 08:41:28;;;;;;;2.85;1.10;;;;;;;5.82;59.72;95694.28;5029190;28;20053;-73
2022/02/16 08:43:55;;;;;;;2.00;1.00;;;;;;;5.90;59.81;95680.06;5028079;28;20064;-73
2022/02/16 08:46:21;;;;;;;2.70;1.10;;;;;;;6.08;58.65;95685.63;5028431;28;20053;-73
2022/02/16 08:48:48;;;;;;;2.00;1.20;;;;;;;6.16;58.36;95671.38;5028912;28;20049;-73
2022/02/16 08:51:15;;;;;;;1.92;1.30;;;;;;;6.28;57.83;95674.34;5028187;28;20050;-72
2022/02/16 08:53:41;;;;;;;1.80;1.20;;;;;;;6.32;58.09;95686.16;5029411;28;20513;-73
2022/02/16 08:56:09;;;;;;;2.30;1.20;;;;;;;6.47;58.48;95684.97;5028160;28;20053;-73
2022/02/16 08:58:36;;;;;;;4.32;1.42;;;;;;;6.52;57.39;95672.13;5029498;28;20076;-72
2022/02/16 09:01:02;;;;;;;3.55;1.27;;;;;;;6.51;57.70;95677.84;5027842;28;20729;-73
2022/02/16 09:03:29;;;;;;;1.42;1.00;;;;;;;6.49;57.71;95678.16;5029205;28;20049;-73
2022/02/16 09:05:56;;;;;;;1.92;1.23;;;;;;;6.55;57.30;95670.72;5010152;28;20414;-73
2022/02/16 09:08:23;;;;;;;2.08;1.08;;;;;;;6.53;57.21;95665.63;5008356;28;20053;-73
2022/02/16 09:10:49;;;;;;;1.73;1.10;;;;;;;6.56;57.24;95666.09;5008746;28;20138;-73
2022/02/16 09:13:17;;;;;;;5.63;1.98;;;;;;;6.58;57.41;95667.41;5010956;28;20044;-73
2022/02/16 09:15:44;;;;;;;2.22;1.10;;;;;;;6.63;57.41;95658.34;5028656;28;20061;-73
2022/02/16 09:18:10;;;;;;;4.13;1.20;;;;;;;6.68;56.76;95644.69;5027789;28;20053;-74
2022/02/16 09:20:37;;;;;;;6.85;1.50;;;;;;;6.77;57.70;95642.81;5028334;28;20528;-73
2022/02/16 09:23:03;;;;;;;3.20;1.20;;;;;;;6.78;56.50;95628.97;5027107;28;20064;-72
2022/02/16 09:25:31;;;;;;;3.00;1.15;;;;;;;6.80;56.60;95634.09;5029055;28;20053;-73
2022/02/16 09:27:58;;;;;;;2.38;1.08;;;;;;;6.75;55.33;95637.72;5027744;28;20560;-73
2022/02/16 09:30:26;;;;;;;4.63;1.27;;;;;;;6.77;56.88;95632.00;5028070;28;20053;-73
2022/02/16 09:32:52;;;;;;;4.97;1.30;;;;;;;6.82;56.38;95634.56;5028646;28;20073;-73
2022/02/16 09:35:19;;;;;;;1.98;1.10;;;;;;;6.85;56.48;95628.53;5027341;28;20615;-73
2022/02/16 09:37:45;;;;;;;2.70;1.27;;;;;;;6.91;57.71;95621.09;5028083;28;20048;-74
2022/02/16 09:40:12;;;;;;;1.52;0.88;;;;;;;6.94;58.42;95615.84;5027545;28;20061;-72
2022/02/16 09:42:40;;;;;;;2.83;0.90;;;;;;;6.90;58.51;95620.28;5028526;28;20064;-73
2022/02/16 09:45:09;;;;;;;1.50;1.00;;;;;;;6.83;59.37;95609.09;5026250;28;20058;-74
2022/02/16 09:47:41;;;;;;;2.08;0.85;;;;;;;6.65;57.14;95602.81;5028278;28;20053;-74
2022/02/16 09:50:08;;;;;;;2.13;1.00;;;;;;;6.50;59.44;95601.31;5026451;28;20583;-73
2022/02/16 09:52:35;;;;;;;1.08;0.50;;;;;;;6.56;58.24;95607.38;5028143;28;20058;-72
2022/02/16 09:55:02;;;;;;;2.65;0.80;;;;;;;6.66;57.75;95593.59;5028155;28;20045;-73
2022/02/16 09:57:28;;;;;;;2.40;0.70;;;;;;;6.73;58.26;95582.31;5027642;28;20061;-73
2022/02/16 09:59:55;;;;;;;1.70;0.85;;;;;;;6.99;56.72;95575.09;5027460;28;20064;-73
2022/02/16 10:02:22;;;;;;;1.17;0.77;;;;;;;6.98;56.12;95589.75;5026851;28;20497;-73
2022/02/16 10:04:59;;;;;;;0.65;0.45;;;;;;;6.95;55.71;95586.88;5027649;28;20049;-72
2022/02/16 10:07:27;;;;;;;0.98;0.77;;;;;;;7.01;56.31;95583.72;5026474;28;20516;-72
2022/02/16 10:09:55;;;;;;;2.78;0.80;;;;;;;7.15;55.97;95582.78;5027762;28;20053;-72
2022/02/16 10:12:32;;;;;;;1.55;0.90;;;;;;;7.20;55.80;95588.03;5026411;28;20049;-73
2022/02/16 10:14:58;;;;;;;2.28;0.73;;;;;;;7.17;55.48;95585.97;5026653;28;20045;-73
2022/02/16 10:17:27;;;;;;;4.43;0.68;;;;;;;7.14;55.63;95576.56;5026616;28;20053;-74
2022/02/16 10:19:56;;;;;;;3.88;0.80;;;;;;;7.19;56.39;95573.72;5028597;28;20057;-75
2022/02/16 10:22:25;;;;;;;1.40;0.80;;;;;;;7.40;54.96;95573.91;5009593;28;20050;-75
2022/02/16 10:24:52;;;;;;;2.92;0.82;;;;;;;7.65;55.10;95580.47;5009576;28;20076;-74
2022/02/16 10:27:20;;;;;;;1.30;0.70;;;;;;;7.80;54.31;95574.59;5010033;28;20045;-75
2022/02/16 10:29:47;;;;;;;2.15;0.80;;;;;;;7.65;54.51;95568.84;5009592;28;20045;-75
2022/02/16 10:32:27;;;;;;;1.70;0.90;;;;;;;7.61;55.25;95581.44;5009889;28;20103;-75
2022/02/16 10:34:55;;;;;;;1.90;0.82;;;;;;;7.62;56.30;95574.88;5009314;28;20417;-74
2022/02/16 10:37:32;;;;;;;2.03;0.88;;;;;;;7.61;56.09;95567.88;5009754;28;20068;-74
2022/02/16 10:40:01;;;;;;;1.65;0.70;;;;;;;7.45;56.56;95576.47;5009373;28;20156;-74
2022/02/16 10:42:28;;;;;;;2.15;0.90;;;;;;;7.27;58.36;95574.84;5009268;28;20038;-74
2022/02/16 10:45:09;;;;;;;2.10;0.85;;;;;;;7.16;60.02;95568.16;5025276;28;20049;-76
2022/02/16 10:47:56;;;;;;;2.75;0.90;;;;;;;7.10;61.19;95558.56;5028881;28;20100;-73
2022/02/16 10:50:24;;;;;;;1.88;0.63;;;;;;;7.09;60.82;95556.97;5029361;28;20136;-74
2022/02/16 10:52:55;;;;;;;1.42;0.80;;;;;;;7.10;60.67;95558.56;5029196;28;20516;-74
2022/02/16 10:55:39;;;;;;;1.73;0.80;;;;;;;7.22;58.92;95556.06;5028980;28;20400;-77
2022/02/16 10:58:06;;;;;;;0.95;0.60;;;;;;;7.38;59.23;95553.69;5029231;28;20095;-76
2022/02/16 11:00:34;;;;;;;2.30;1.00;;;;;;;7.44;57.69;95547.00;5029947;28;20053;-74
2022/02/16 11:03:03;;;;;;;1.52;0.80;;;;;;;7.53;58.39;95558.66;5029749;28;20052;-74
2022/02/16 11:05:30;;;;;;;1.13;0.60;;;;;;;7.57;58.35;95557.69;5028291;28;20056;-74
2022/02/16 11:07:59;;;;;;;1.63;0.60;;;;;;;7.59;58.63;95560.88;5029832;28;20050;-74
2022/02/16 11:10:28;;;;;;;1.20;0.68;;;;;;;7.62;59.72;95555.94;5028333;28;20048;-75
2022/02/16 11:12:55;;;;;;;1.05;0.50;;;;;;;7.53;60.12;95567.56;5029044;28;20041;-74
2022/02/16 11:15:23;;;;;;;0.50;0.50;;;;;;;7.47;61.48;95560.72;4989595;28;20525;-74
2022/02/16 11:17:50;;;;;;;1.17;0.70;;;;;;;7.39;62.44;95560.69;4989853;28;20046;-74
2022/02/16 11:20:21;;;;;;;0.98;0.50;;;;;;;7.30;63.82;95555.25;4989697;28;20108;-74
2022/02/16 11:22:51;;;;;;;1.83;0.40;;;;;;;7.23;64.87;95554.94;4989515;28;20047;-74
2022/02/16 11:25:30;;;;;;;1.27;0.68;;;;;;;7.21;66.24;95538.22;4989936;28;20390;-74
2022/02/16 11:27:57;;;;;;;2.67;0.68;;;;;;;7.21;66.78;95532.81;4989534;28;20516;-74
2022/02/16 11:30:31;;;;;;;1.33;0.60;;;;;;;7.24;67.72;95527.53;4989758;28;20042;-74
2022/02/16 11:33:11;;;;;;;2.67;0.73;;;;;;;7.18;67.51;95528.00;4989757;28;20058;-73
2022/02/16 11:35:46;;;;;;;2.03;0.43;;;;;;;7.18;68.64;95534.22;4989506;28;20050;-74
2022/02/16 11:38:16;;;;;;;1.05;0.50;;;;;;;7.21;68.39;95532.81;4989685;28;20038;-76
2022/02/16 11:40:46;;;;;;;0.85;0.40;;;;;;;7.24;68.22;95526.75;4989111;28;20057;-73
2022/02/16 11:43:14;;;;;;;0.70;0.40;;;;;;;7.21;69.82;95517.34;4994748;28;20046;-76